Hong Kong International Airport
VHHH : now visible

Airfield :











YOU CAN JOIN US ON...

 
LOGIN :

Register | Disclaimer

   EN    FR    IT 

 









Legend :    VFR   Marginal VFR   IFR   Intensive IFR   Very Intensive IFR
Visi :
Ceiling :
>= 8 km
>= 3000ft
5 to 8 km
1000 to 3000 ft
1500m to 5 km
500 to 1000 ft
800 to 1500m
200 to 500 ft
< 800m
< 200 ft
Symbols :   Thunderstorms  Fog  Heavy snow  Heavy precipitations  Wind > 20 kt






- Airport Elevation : 28 ft
- IATA code : HKG


VHHH - Hong Kong International

CURRENT METAR :
  • 211530Z 34006KT 9000 FEW006 SCT012 25/24 Q1009 NOSIG

EXPIRED METARs :
  • 211500Z 33006KT 9000 FEW006 SCT012 25/24 Q1009 NOSIG
  • 211430Z 33006KT 9000 FEW005 SCT012 25/24 Q1009 NOSIG
  • 211400Z 33007KT 7000 FEW005 SCT012 25/24 Q1009 NOSIG
  • 211330Z 32006KT 6000 FEW004 SCT010 25/24 Q1009 NOSIG
  • 211300Z 34006KT 5000 -RA FEW004 SCT010 25/24 Q1009 NOSIG
  • 211230Z 33009KT 4400 -RA BR FEW004 SCT010 25/24 Q1009 NOSIG
  • 211200Z 34009KT 8000 -RA FEW004 SCT010 25/24 Q1008 NOSIG
  • 211130Z 33008KT 9000 FEW005 SCT012 25/24 Q1008 NOSIG
  • 211100Z 34009KT 7000 FEW005 SCT012 25/24 Q1008 NOSIG

TAF TAF VHHH
Valid from the 21 at 15:00 until the 22 at 21:00 UTC


211400Z 2115/2221 34010KT 8000 FEW008 SCT020 TX28/2206Z TN24/2122Z
TEMPO 2118/2123 4000 SHRA FEW008CB SCT015
TEMPO 2123/2205 3000 TSRA SHRA FEW006CB SCT015
BECMG 2205/2207 10010KT
TEMPO 2205/2208 4000 SHRA FEW008CB SCT015
VHHK FIR / Asia



MET'MAP, your aeronautical weather chart ! - Copyright ORBIFLY December 2007 - Disclaimer

ORBIFLY MET'MAP TEAM :

Programming & Development : Alexandra Zaïnal
Original concept : Baudouin d'Aumeries
Technical & hardware support : Manuel Goepfert
Assistance : Marc-Olivier Méhu




SOURCES & CREDITS :

   NOAA       Earth
Advisory